Time;durP1;ratioP1;P1;durP2;ratioP2;P2;SDS_P1;SDS_P2;PMS_P1;PMS_P2;Temp;Humidity;BMP_temperature;BMP_pressure;BME280_temperature;BME280_humidity;BME280_pressure;Samples;Min_cycle;Max_cycle;Signal;HPM_P1;HPM_P2
2023/12/07 00:00:37;;;;;;;12.13;11.33;;;5.40;26.40;;;;;;4995035;28;20178;-53
2023/12/07 00:03:06;;;;;;;12.20;11.50;;;5.40;26.40;;;;;;4994951;28;20185;-51
2023/12/07 00:05:32;;;;;;;11.83;11.23;;;5.40;26.50;;;;;;4994700;28;20534;-51
2023/12/07 00:07:58;;;;;;;11.87;11.27;;;5.40;26.50;;;;;;4994876;28;20424;-49
2023/12/07 00:10:24;;;;;;;11.90;11.10;;;5.40;26.40;;;;;;4994745;28;20829;-50
2023/12/07 00:12:49;;;;;;;10.57;10.00;;;5.50;26.30;;;;;;4994783;28;20546;-52
2023/12/07 00:15:15;;;;;;;12.10;11.33;;;5.40;26.20;;;;;;4994454;28;20215;-50
2023/12/07 00:17:40;;;;;;;12.07;11.37;;;5.30;26.40;;;;;;4994699;28;20200;-52
2023/12/07 00:20:07;;;;;;;12.00;11.20;;;5.30;26.20;;;;;;4994554;28;20685;-49
2023/12/07 00:22:32;;;;;;;11.50;10.60;;;5.50;26.40;;;;;;4993856;28;20188;-50
2023/12/07 00:24:58;;;;;;;11.97;11.27;;;5.50;25.60;;;;;;4994601;28;20924;-54
2023/12/07 00:27:24;;;;;;;11.33;10.63;;;5.60;25.80;;;;;;4994592;28;20204;-48
2023/12/07 00:29:50;;;;;;;12.07;11.30;;;5.50;25.30;;;;;;4994540;28;20209;-48
2023/12/07 00:32:15;;;;;;;13.03;11.73;;;5.50;26.10;;;;;;4994519;28;20224;-47
2023/12/07 00:34:41;;;;;;;11.13;10.47;;;5.50;25.80;;;;;;4994620;28;20232;-46
2023/12/07 00:37:07;;;;;;;11.43;10.70;;;5.50;25.70;;;;;;4994292;28;20173;-45
2023/12/07 00:39:33;;;;;;;10.80;10.00;;;5.50;25.40;;;;;;4994433;28;20184;-48
2023/12/07 00:41:58;;;;;;;10.97;10.27;;;5.60;25.90;;;;;;4994422;28;20185;-48
2023/12/07 00:44:24;;;;;;;9.70;9.20;;;5.60;25.40;;;;;;4994456;28;20192;-50
2023/12/07 00:46:50;;;;;;;11.10;10.40;;;5.70;25.00;;;;;;4994268;28;20181;-48
2023/12/07 00:49:16;;;;;;;11.00;10.30;;;5.80;25.20;;;;;;4994342;28;20428;-52
2023/12/07 00:51:41;;;;;;;10.77;10.00;;;5.70;24.70;;;;;;4994347;28;20828;-48
2023/12/07 00:54:07;;;;;;;10.80;10.13;;;5.70;24.80;;;;;;4994435;28;20213;-47
2023/12/07 00:56:33;;;;;;;10.53;9.83;;;5.70;24.90;;;;;;4994348;28;20184;-53
2023/12/07 00:58:58;;;;;;;10.80;10.20;;;5.60;25.30;;;;;;4994271;28;20196;-49
2023/12/07 01:01:24;;;;;;;11.90;11.00;;;5.60;25.10;;;;;;4994403;28;20181;-50
2023/12/07 01:03:50;;;;;;;10.20;9.63;;;5.70;25.00;;;;;;4994349;28;20181;-51
2023/12/07 01:06:16;;;;;;;10.37;9.77;;;5.90;24.90;;;;;;4994283;28;20761;-50
2023/12/07 01:08:43;;;;;;;9.37;8.87;;;6.00;24.30;;;;;;4994063;28;20195;-47
2023/12/07 01:11:08;;;;;;;11.03;10.40;;;6.10;24.10;;;;;;4994085;28;20811;-45
2023/12/07 01:13:36;;;;;;;9.67;9.17;;;6.10;23.80;;;;;;4994231;28;20427;-51
2023/12/07 01:16:01;;;;;;;11.67;10.77;;;6.10;23.80;;;;;;4993934;28;20462;-48
2023/12/07 01:18:27;;;;;;;10.00;9.50;;;6.10;23.60;;;;;;4994169;28;20417;-46
2023/12/07 01:20:52;;;;;;;10.63;9.90;;;6.10;23.90;;;;;;4994149;28;20181;-46
2023/12/07 01:23:18;;;;;;;10.67;9.80;;;6.10;23.80;;;;;;4994022;28;20626;-48
2023/12/07 01:25:44;;;;;;;10.63;10.03;;;6.00;24.00;;;;;;4994054;28;20641;-47
2023/12/07 01:28:09;;;;;;;10.87;10.27;;;5.90;24.50;;;;;;4994132;28;20185;-61
2023/12/07 01:30:36;;;;;;;10.40;9.80;;;5.90;24.30;;;;;;4993974;28;20216;-46
2023/12/07 01:33:01;;;;;;;10.60;9.80;;;5.70;24.40;;;;;;4995251;28;20185;-47
2023/12/07 01:35:28;;;;;;;10.60;10.00;;;5.70;24.70;;;;;;4997500;28;20408;-61
2023/12/07 01:37:54;;;;;;;10.60;10.00;;;5.70;25.00;;;;;;4997562;28;20185;-62
2023/12/07 01:40:19;;;;;;;10.23;9.60;;;5.70;25.10;;;;;;4997563;28;20471;-61
2023/12/07 01:42:52;;;;;;;10.17;9.57;;;5.80;24.80;;;;;;4997477;28;20585;-61
2023/12/07 01:45:18;;;;;;;10.53;9.93;;;5.80;24.70;;;;;;4997277;28;20177;-61
2023/12/07 01:47:45;;;;;;;9.73;9.23;;;5.80;24.50;;;;;;4997445;28;20423;-61
2023/12/07 01:50:15;;;;;;;11.40;10.57;;;5.80;24.80;;;;;;4997247;28;20433;-61
2023/12/07 01:52:45;;;;;;;10.93;10.13;;;5.80;24.70;;;;;;5016768;28;20458;-61
2023/12/07 01:55:12;;;;;;;10.97;10.37;;;5.70;24.90;;;;;;5012556;28;20443;-61
2023/12/07 01:57:38;;;;;;;10.73;10.03;;;5.70;25.20;;;;;;4997073;28;20420;-61
2023/12/07 02:00:05;;;;;;;10.30;9.67;;;5.70;25.50;;;;;;4996946;28;20479;-61
2023/12/07 02:02:32;;;;;;;11.00;10.30;;;5.70;25.30;;;;;;4996956;28;20417;-61
2023/12/07 02:04:57;;;;;;;10.40;9.80;;;5.80;25.10;;;;;;4996763;28;20554;-61
2023/12/07 02:07:23;;;;;;;11.13;10.53;;;5.80;25.30;;;;;;4996726;28;20515;-61
2023/12/07 02:09:49;;;;;;;9.97;9.37;;;5.90;25.00;;;;;;4996726;28;20173;-61
2023/12/07 02:12:15;;;;;;;10.37;9.77;;;6.10;24.60;;;;;;4996588;28;20236;-61
2023/12/07 02:14:41;;;;;;;11.07;10.57;;;6.20;24.00;;;;;;4996855;28;20420;-61
2023/12/07 02:17:09;;;;;;;10.43;9.93;;;6.20;24.30;;;;;;4996531;28;20599;-61
2023/12/07 02:19:55;;;;;;;11.47;10.63;;;6.30;23.90;;;;;;4996544;28;20420;-61
2023/12/07 02:22:39;;;;;;;11.40;10.70;;;6.20;24.00;;;;;;4996792;28;20416;-61
2023/12/07 02:25:13;;;;;;;11.10;10.50;;;6.20;24.20;;;;;;4996801;28;20987;-60
2023/12/07 02:27:45;;;;;;;10.47;9.97;;;6.30;24.10;;;;;;4996705;28;20420;-61
2023/12/07 02:30:11;;;;;;;10.10;9.50;;;6.30;23.90;;;;;;4996402;28;20431;-62
2023/12/07 02:32:38;;;;;;;11.00;10.30;;;6.30;24.10;;;;;;4996531;28;20412;-61
2023/12/07 02:35:05;;;;;;;9.90;9.30;;;6.40;24.20;;;;;;4996533;28;20412;-61
2023/12/07 02:37:40;;;;;;;10.03;9.43;;;6.60;23.90;;;;;;5013971;28;20777;-61
2023/12/07 02:40:11;;;;;;;10.50;9.80;;;6.80;23.10;;;;;;4996437;28;20408;-61
2023/12/07 02:42:39;;;;;;;10.67;9.97;;;6.80;22.90;;;;;;4996507;28;20416;-61
2023/12/07 02:45:06;;;;;;;11.00;10.20;;;6.80;22.90;;;;;;4995554;28;20435;-61
2023/12/07 02:47:31;;;;;;;10.77;10.17;;;6.70;23.00;;;;;;4996058;28;20462;-61
2023/12/07 02:49:57;;;;;;;10.97;10.37;;;6.80;23.30;;;;;;4996129;28;20447;-61
2023/12/07 02:52:22;;;;;;;11.00;10.27;;;6.90;23.00;;;;;;4996142;28;20209;-61
2023/12/07 02:54:48;;;;;;;12.33;11.53;;;6.90;22.60;;;;;;4996301;28;20549;-61
2023/12/07 02:57:14;;;;;;;11.07;10.40;;;6.90;22.90;;;;;;4995913;28;20177;-61
2023/12/07 02:59:40;;;;;;;12.00;11.30;;;7.00;23.00;;;;;;4995944;28;20173;-61
2023/12/07 03:02:06;;;;;;;12.57;11.77;;;7.10;23.00;;;;;;4996049;28;20417;-61
2023/12/07 03:04:32;;;;;;;10.70;10.20;;;7.10;22.10;;;;;;4995885;28;20289;-61
2023/12/07 03:06:58;;;;;;;11.70;10.90;;;6.90;22.80;;;;;;4995860;28;20188;-61
2023/12/07 03:09:23;;;;;;;11.07;10.47;;;6.80;23.20;;;;;;4995775;28;20220;-61
2023/12/07 03:11:50;;;;;;;11.77;11.07;;;6.70;23.30;;;;;;4995351;28;20460;-62
2023/12/07 03:14:15;;;;;;;11.33;10.47;;;6.80;23.20;;;;;;4995812;28;20604;-61
2023/12/07 03:16:41;;;;;;;11.53;10.90;;;6.70;22.90;;;;;;4995399;28;20472;-61
2023/12/07 03:19:06;;;;;;;11.13;10.53;;;6.70;23.00;;;;;;4995724;28;20173;-61
2023/12/07 03:21:32;;;;;;;12.23;11.43;;;6.70;22.70;;;;;;4995683;28;20829;-61
2023/12/07 03:23:58;;;;;;;11.40;10.70;;;6.70;22.90;;;;;;5013429;28;20173;-60
2023/12/07 03:26:23;;;;;;;12.27;11.57;;;6.60;23.00;;;;;;4995439;28;20181;-61
2023/12/07 03:28:49;;;;;;;12.27;11.27;;;6.40;23.90;;;;;;4995515;28;20319;-61
2023/12/07 03:31:14;;;;;;;12.23;11.40;;;6.20;24.40;;;;;;5013117;28;20284;-60
2023/12/07 03:33:42;;;;;;;12.20;11.40;;;6.10;25.00;;;;;;5013056;28;20173;-60
2023/12/07 03:36:11;;;;;;;12.53;11.63;;;5.90;25.50;;;;;;4995152;28;20166;-61
2023/12/07 03:38:37;;;;;;;12.37;11.67;;;5.70;25.80;;;;;;4995498;28;20416;-60
2023/12/07 03:41:03;;;;;;;13.27;12.47;;;5.80;25.70;;;;;;4995249;28;20421;-60
2023/12/07 03:43:29;;;;;;;12.30;11.60;;;5.90;25.60;;;;;;4995123;28;20417;-60
2023/12/07 03:45:55;;;;;;;12.20;11.60;;;6.10;25.20;;;;;;4995095;28;20470;-60
2023/12/07 03:48:20;;;;;;;13.33;12.53;;;6.20;24.90;;;;;;4995164;28;20188;-60
2023/12/07 03:50:46;;;;;;;13.60;12.70;;;6.20;24.40;;;;;;4994955;28;20263;-60
2023/12/07 03:53:12;;;;;;;13.30;12.50;;;6.10;24.60;;;;;;4995294;28;20176;-61
2023/12/07 03:55:38;;;;;;;13.33;12.43;;;6.00;24.90;;;;;;4994708;28;20176;-60
2023/12/07 03:58:04;;;;;;;13.50;12.67;;;6.00;25.00;;;;;;4994344;28;20412;-61
2023/12/07 04:00:32;;;;;;;12.83;11.93;;;6.00;24.60;;;;;;4995000;28;20634;-60
2023/12/07 04:02:58;;;;;;;13.27;12.47;;;6.00;24.70;;;;;;4995010;28;20420;-60
2023/12/07 04:05:24;;;;;;;13.63;12.73;;;5.90;24.80;;;;;;4994784;28;20510;-60
2023/12/07 04:07:49;;;;;;;13.20;12.30;;;5.80;24.80;;;;;;5012581;28;20408;-60
2023/12/07 04:10:15;;;;;;;13.90;12.97;;;5.90;24.60;;;;;;4994736;28;20948;-60
2023/12/07 04:12:41;;;;;;;14.30;13.30;;;5.80;24.70;;;;;;5012407;28;20181;-60
2023/12/07 04:15:07;;;;;;;14.57;13.37;;;5.80;24.80;;;;;;4994729;28;20617;-61
2023/12/07 04:17:33;;;;;;;14.17;13.17;;;5.70;24.90;;;;;;4994775;28;20724;-60
2023/12/07 04:19:58;;;;;;;14.40;13.50;;;5.60;25.30;;;;;;4994747;28;20445;-61
2023/12/07 04:22:24;;;;;;;12.80;11.80;;;5.70;25.00;;;;;;5012168;28;20665;-60
2023/12/07 04:24:50;;;;;;;13.43;12.47;;;5.70;25.00;;;;;;4994766;28;20208;-61
2023/12/07 04:27:15;;;;;;;13.67;12.73;;;5.70;25.10;;;;;;4994544;28;20511;-60
2023/12/07 04:29:41;;;;;;;14.20;13.30;;;5.80;24.80;;;;;;5012198;28;20200;-60
2023/12/07 04:32:07;;;;;;;13.03;12.23;;;5.80;24.60;;;;;;4994580;28;20259;-60
2023/12/07 04:34:33;;;;;;;13.80;12.90;;;5.80;25.10;;;;;;4994622;28;20567;-60
2023/12/07 04:36:59;;;;;;;14.23;13.33;;;5.90;24.90;;;;;;4994593;28;20440;-60
2023/12/07 04:39:25;;;;;;;13.07;12.27;;;6.10;24.40;;;;;;4994460;28;20937;-61
2023/12/07 04:41:51;;;;;;;14.80;13.70;;;6.00;24.40;;;;;;4994424;28;20187;-61
2023/12/07 04:44:17;;;;;;;14.10;13.30;;;5.90;24.00;;;;;;4994588;28;20173;-61
2023/12/07 04:46:43;;;;;;;13.83;12.93;;;5.60;25.00;;;;;;4994425;28;20808;-61
2023/12/07 04:49:09;;;;;;;13.87;12.97;;;5.70;25.50;;;;;;5012094;28;20420;-61
2023/12/07 04:51:34;;;;;;;12.87;12.17;;;5.90;24.90;;;;;;4994396;28;20822;-61
2023/12/07 04:54:00;;;;;;;14.10;13.07;;;6.00;24.60;;;;;;4994552;28;20177;-61
2023/12/07 04:56:26;;;;;;;13.90;13.10;;;6.00;23.70;;;;;;4994069;28;20174;-61
2023/12/07 04:58:51;;;;;;;14.40;13.40;;;6.10;24.20;;;;;;4994367;28;20412;-61
2023/12/07 05:01:18;;;;;;;13.90;12.87;;;6.10;23.80;;;;;;4994379;28;20544;-60
2023/12/07 05:03:45;;;;;;;14.70;13.83;;;6.10;24.10;;;;;;4994245;28;20182;-60
2023/12/07 05:06:10;;;;;;;15.07;14.07;;;6.10;23.90;;;;;;4994149;28;20790;-60
2023/12/07 05:08:36;;;;;;;13.77;12.97;;;6.10;23.60;;;;;;4996348;28;20412;-60
2023/12/07 05:11:02;;;;;;;14.33;13.30;;;6.10;23.90;;;;;;4998093;28;20205;-49
2023/12/07 05:13:27;;;;;;;13.20;12.40;;;6.20;24.10;;;;;;5015722;28;20633;-49
2023/12/07 05:15:53;;;;;;;12.47;11.77;;;6.30;23.20;;;;;;4997711;28;20223;-50
2023/12/07 05:18:19;;;;;;;13.87;13.07;;;6.10;23.20;;;;;;4998088;28;20542;-60
2023/12/07 05:20:44;;;;;;;13.53;12.63;;;6.10;23.90;;;;;;4997839;28;20187;-60
2023/12/07 05:23:10;;;;;;;13.87;13.03;;;6.20;23.30;;;;;;5014329;28;20665;-60
2023/12/07 05:25:36;;;;;;;13.77;12.97;;;6.10;23.80;;;;;;5013792;28;20181;-60
2023/12/07 05:28:01;;;;;;;14.27;13.37;;;6.10;23.70;;;;;;5003724;28;20181;-61
2023/12/07 05:30:27;;;;;;;13.63;12.83;;;6.10;23.60;;;;;;4997388;28;20595;-61
2023/12/07 05:32:53;;;;;;;13.20;12.40;;;6.30;23.90;;;;;;4997457;28;20208;-61
2023/12/07 05:35:20;;;;;;;12.60;11.90;;;6.50;23.20;;;;;;4997330;28;20455;-60
2023/12/07 05:37:46;;;;;;;13.03;12.23;;;6.70;22.70;;;;;;4997427;28;20424;-60
2023/12/07 05:40:15;;;;;;;12.40;11.70;;;6.90;22.00;;;;;;4997594;28;20489;-61
2023/12/07 05:42:41;;;;;;;12.73;11.80;;;7.00;22.00;;;;;;4997436;28;20181;-61
2023/12/07 05:45:09;;;;;;;12.80;12.00;;;7.10;21.80;;;;;;4997546;28;20412;-61
2023/12/07 05:47:36;;;;;;;13.77;12.97;;;7.00;22.00;;;;;;4997436;28;20552;-61
2023/12/07 05:50:03;;;;;;;12.37;11.63;;;7.00;22.00;;;;;;4997250;28;20425;-61
2023/12/07 05:52:29;;;;;;;13.00;12.20;;;6.90;21.80;;;;;;4997176;28;20467;-61
2023/12/07 05:54:54;;;;;;;12.03;11.37;;;6.80;21.90;;;;;;4997366;28;20408;-61
2023/12/07 05:57:20;;;;;;;12.80;12.00;;;6.90;22.00;;;;;;4997110;28;20431;-61
2023/12/07 05:59:46;;;;;;;13.33;12.53;;;7.00;21.40;;;;;;4997111;28;20177;-61
2023/12/07 06:02:11;;;;;;;14.40;13.33;;;7.10;21.40;;;;;;4997255;28;20275;-61
2023/12/07 06:04:38;;;;;;;13.10;12.30;;;7.10;21.10;;;;;;4997219;28;20185;-61
2023/12/07 06:07:03;;;;;;;14.27;13.27;;;7.10;21.20;;;;;;4997020;28;20650;-62
2023/12/07 06:09:29;;;;;;;12.53;11.83;;;7.10;20.90;;;;;;4996943;28;20415;-62
2023/12/07 06:11:55;;;;;;;14.00;13.10;;;7.00;21.00;;;;;;4996976;28;20201;-62
2023/12/07 06:14:22;;;;;;;13.50;12.60;;;7.10;21.10;;;;;;4997085;28;20526;-62
2023/12/07 06:16:48;;;;;;;14.23;13.37;;;7.10;21.10;;;;;;4996705;28;20982;-62
2023/12/07 06:19:14;;;;;;;14.20;13.40;;;7.20;21.10;;;;;;4995985;28;20412;-62
2023/12/07 06:21:40;;;;;;;14.40;13.50;;;7.20;21.10;;;;;;4996591;28;20431;-62
2023/12/07 06:24:06;;;;;;;14.10;13.10;;;7.20;20.90;;;;;;4996832;28;20184;-62
2023/12/07 06:26:32;;;;;;;12.63;11.83;;;7.20;21.20;;;;;;4996387;28;20181;-61
2023/12/07 06:28:58;;;;;;;14.03;13.33;;;7.20;21.00;;;;;;4996542;28;20415;-62
2023/12/07 06:31:24;;;;;;;14.17;13.40;;;7.20;21.00;;;;;;4996488;28;20209;-62
2023/12/07 06:33:50;;;;;;;13.67;12.87;;;7.20;21.10;;;;;;4996775;28;20416;-62
2023/12/07 06:36:20;;;;;;;13.63;12.83;;;7.20;21.00;;;;;;4996323;28;20264;-60
2023/12/07 06:38:46;;;;;;;14.53;13.63;;;7.20;20.90;;;;;;4996350;28;20181;-61
2023/12/07 06:41:12;;;;;;;14.47;13.60;;;7.20;20.80;;;;;;4996478;28;20463;-61
2023/12/07 06:43:38;;;;;;;14.23;13.40;;;7.20;20.90;;;;;;4996284;28;20451;-62
2023/12/07 06:46:04;;;;;;;14.50;13.70;;;7.20;21.40;;;;;;4996221;28;20420;-62
2023/12/07 06:48:29;;;;;;;15.03;14.13;;;7.20;20.80;;;;;;4996195;28;20271;-57
2023/12/07 06:50:55;;;;;;;14.70;13.80;;;7.20;20.60;;;;;;4996211;28;20216;-62
2023/12/07 06:53:21;;;;;;;14.93;14.00;;;7.30;20.50;;;;;;4996244;28;20185;-61
2023/12/07 06:55:46;;;;;;;14.70;13.80;;;7.20;20.50;;;;;;4995900;28;20281;-60
2023/12/07 06:58:12;;;;;;;15.43;14.43;;;7.20;20.60;;;;;;5017076;28;20423;-61
2023/12/07 07:00:37;;;;;;;14.70;13.70;;;7.20;20.60;;;;;;5008375;28;20530;-62
2023/12/07 07:03:03;;;;;;;15.70;14.70;;;7.20;20.50;;;;;;4995503;28;20181;-61
2023/12/07 07:05:29;;;;;;;15.30;14.40;;;7.20;20.50;;;;;;4995142;28;20284;-61
2023/12/07 07:07:55;;;;;;;14.67;13.77;;;7.20;20.50;;;;;;5003712;28;20267;-62
2023/12/07 07:10:21;;;;;;;15.60;14.50;;;7.20;21.00;;;;;;5013303;28;20183;-62
2023/12/07 07:12:47;;;;;;;15.07;14.17;;;7.20;20.50;;;;;;5013576;28;20415;-60
2023/12/07 07:15:12;;;;;;;14.10;13.30;;;7.10;20.70;;;;;;5013212;28;20787;-61
2023/12/07 07:17:38;;;;;;;14.40;13.50;;;7.10;20.70;;;;;;5013542;28;20536;-51
2023/12/07 07:20:04;;;;;;;14.67;13.77;;;7.10;20.70;;;;;;5013413;28;20569;-46
2023/12/07 07:22:30;;;;;;;14.27;13.37;;;7.10;20.70;;;;;;5032470;28;20189;-49
2023/12/07 07:24:56;;;;;;;14.97;13.90;;;7.10;20.70;;;;;;5015084;28;20426;-62
2023/12/07 07:27:22;;;;;;;14.77;13.87;;;7.10;20.80;;;;;;5014969;28;20177;-62
2023/12/07 07:29:47;;;;;;;15.23;14.23;;;7.10;20.90;;;;;;5015039;28;20203;-50
2023/12/07 07:32:13;;;;;;;14.60;13.60;;;7.10;21.00;;;;;;5014863;28;20512;-49
2023/12/07 07:34:39;;;;;;;14.87;13.90;;;7.10;20.90;;;;;;5002485;28;20185;-52
2023/12/07 07:37:06;;;;;;;15.33;14.20;;;7.10;21.10;;;;;;4994722;28;20201;-52
2023/12/07 07:39:32;;;;;;;15.17;14.27;;;7.00;21.20;;;;;;4994875;28;20180;-48
2023/12/07 07:41:58;;;;;;;14.73;13.60;;;7.00;21.50;;;;;;4995366;28;20777;-50
2023/12/07 07:44:23;;;;;;;16.03;14.80;;;6.80;21.40;;;;;;4995443;28;20185;-51
2023/12/07 07:46:49;;;;;;;15.60;14.60;;;6.80;21.90;;;;;;4995053;28;20281;-48
2023/12/07 07:49:15;;;;;;;15.47;14.57;;;6.60;21.80;;;;;;4995291;28;20273;-49
2023/12/07 07:51:40;;;;;;;15.00;13.90;;;6.70;21.90;;;;;;5012643;28;20221;-48
2023/12/07 07:54:06;;;;;;;16.73;15.53;;;6.70;21.80;;;;;;4995270;28;20183;-47
2023/12/07 07:56:31;;;;;;;14.77;13.77;;;6.70;21.80;;;;;;4994925;28;20176;-45
2023/12/07 07:59:00;;;;;;;15.63;14.70;;;6.80;21.90;;;;;;4995033;28;20212;-48
2023/12/07 08:01:26;;;;;;;15.73;14.80;;;6.80;21.90;;;;;;4995037;28;20260;-50
2023/12/07 08:03:51;;;;;;;15.37;14.37;;;6.80;21.70;;;;;;4995035;28;20507;-51
2023/12/07 08:06:17;;;;;;;15.63;14.43;;;6.90;21.40;;;;;;4994780;28;20177;-54
2023/12/07 08:08:43;;;;;;;16.20;15.13;;;7.00;21.20;;;;;;4994883;28;20228;-50
2023/12/07 08:11:08;;;;;;;15.47;14.13;;;7.00;21.10;;;;;;4994779;28;20209;-46
2023/12/07 08:13:34;;;;;;;16.87;15.83;;;7.00;20.90;;;;;;4994797;28;20600;-47
2023/12/07 08:16:00;;;;;;;16.50;15.50;;;7.00;20.80;;;;;;4994555;28;20197;-48
2023/12/07 08:18:26;;;;;;;16.70;15.57;;;7.00;21.00;;;;;;4994842;28;20326;-52
2023/12/07 08:20:51;;;;;;;17.83;16.40;;;7.00;20.70;;;;;;4994764;28;20502;-49
2023/12/07 08:23:17;;;;;;;17.83;16.37;;;7.00;20.80;;;;;;4994708;28;20183;-52
2023/12/07 08:25:43;;;;;;;17.20;16.00;;;6.60;21.40;;;;;;4994407;28;20641;-49
2023/12/07 08:28:09;;;;;;;16.73;15.50;;;6.30;21.60;;;;;;4994711;28;20188;-50
2023/12/07 08:30:36;;;;;;;15.53;14.33;;;6.20;22.90;;;;;;5012179;28;20535;-57
2023/12/07 08:33:02;;;;;;;15.83;14.73;;;6.20;23.40;;;;;;5012253;28;20415;-56
2023/12/07 08:35:27;;;;;;;16.47;15.13;;;6.10;22.60;;;;;;4994451;28;20523;-56
2023/12/07 08:37:53;;;;;;;15.83;14.83;;;5.90;23.00;;;;;;4994519;28;20424;-57
2023/12/07 08:40:19;;;;;;;16.03;14.93;;;6.00;25.00;;;;;;5010623;28;20645;-62
2023/12/07 08:42:46;;;;;;;15.97;14.97;;;6.20;23.70;;;;;;5014553;28;20702;-62
2023/12/07 08:45:13;;;;;;;14.77;13.67;;;6.30;23.20;;;;;;5000995;28;20212;-62
2023/12/07 08:47:39;;;;;;;15.23;14.23;;;6.40;22.40;;;;;;4998323;28;20760;-61
2023/12/07 08:50:07;;;;;;;15.30;14.20;;;6.50;21.70;;;;;;4998194;28;20430;-47
2023/12/07 08:52:33;;;;;;;15.53;14.43;;;6.40;21.00;;;;;;4998265;28;20213;-47
2023/12/07 08:54:58;;;;;;;14.73;13.63;;;6.40;21.10;;;;;;4998256;28;20478;-52
2023/12/07 08:57:24;;;;;;;15.23;14.23;;;6.60;21.30;;;;;;4998056;28;20928;-46
2023/12/07 08:59:50;;;;;;;17.00;15.90;;;6.50;21.50;;;;;;4997987;28;20217;-50
2023/12/07 09:02:15;;;;;;;16.27;15.17;;;6.50;21.40;;;;;;4998248;28;20181;-53
2023/12/07 09:04:41;;;;;;;15.67;14.63;;;6.50;21.50;;;;;;4997906;28;20177;-53
2023/12/07 09:07:07;;;;;;;15.47;14.50;;;6.50;21.30;;;;;;4998069;28;20646;-61
2023/12/07 09:09:32;;;;;;;14.13;13.33;;;6.60;21.80;;;;;;4998059;28;20188;-62
2023/12/07 09:11:58;;;;;;;16.47;15.33;;;6.70;21.80;;;;;;4998087;28;20205;-62
2023/12/07 09:14:26;;;;;;;18.53;17.23;;;6.80;20.50;;;;;;4998267;28;20186;-61
2023/12/07 09:16:52;;;;;;;15.87;14.77;;;6.80;20.60;;;;;;4997624;28;20193;-61
2023/12/07 09:19:17;;;;;;;16.37;15.43;;;6.70;20.50;;;;;;4998024;28;20418;-61
2023/12/07 09:21:43;;;;;;;16.17;15.00;;;6.70;20.30;;;;;;4997900;28;20178;-61
2023/12/07 09:24:09;;;;;;;15.33;14.13;;;6.80;20.30;;;;;;4998097;28;20197;-60
2023/12/07 09:26:35;;;;;;;14.80;13.97;;;6.90;20.40;;;;;;4997629;28;20420;-61
2023/12/07 09:29:00;;;;;;;16.57;15.47;;;7.00;20.00;;;;;;4997908;28;20272;-61
2023/12/07 09:31:27;;;;;;;17.97;16.43;;;7.10;19.50;;;;;;4997636;28;20213;-61
2023/12/07 09:33:53;;;;;;;16.80;15.30;;;7.00;19.90;;;;;;4997729;28;20214;-61
2023/12/07 09:36:21;;;;;;;17.37;16.20;;;7.00;20.60;;;;;;4997495;28;20428;-61
2023/12/07 09:38:46;;;;;;;16.73;15.70;;;7.10;20.40;;;;;;4997810;28;20511;-61
2023/12/07 09:41:12;;;;;;;17.80;16.60;;;7.30;20.80;;;;;;5015367;28;20503;-61
2023/12/07 09:43:38;;;;;;;19.50;18.20;;;7.30;20.10;;;;;;4997545;28;20424;-61
2023/12/07 09:46:05;;;;;;;18.77;17.57;;;7.30;20.00;;;;;;4996848;28;20275;-61
2023/12/07 09:48:31;;;;;;;17.63;16.43;;;7.40;19.90;;;;;;5013210;28;20539;-61
2023/12/07 09:51:00;;;;;;;17.83;16.73;;;7.50;19.90;;;;;;4997447;28;20456;-61
2023/12/07 09:53:29;;;;;;;18.67;16.87;;;7.60;19.70;;;;;;4997588;28;20442;-63
2023/12/07 09:55:54;;;;;;;16.53;15.53;;;7.60;19.70;;;;;;4997257;28;20427;-61
2023/12/07 09:58:20;;;;;;;15.90;14.90;;;7.30;19.20;;;;;;4997483;28;20428;-60
2023/12/07 10:00:47;;;;;;;18.10;16.80;;;7.00;19.50;;;;;;4997150;28;20240;-61
2023/12/07 10:03:23;;;;;;;17.83;16.23;;;7.00;20.10;;;;;;4997258;28;20177;-61
2023/12/07 10:05:59;;;;;;;15.50;14.60;;;6.90;20.00;;;;;;4996893;28;20459;-61
2023/12/07 10:08:30;;;;;;;15.63;14.63;;;6.70;19.80;;;;;;4996973;28;20435;-61
2023/12/07 10:11:09;;;;;;;15.20;14.30;;;6.40;20.10;;;;;;4996901;28;20830;-57
2023/12/07 10:13:36;;;;;;;16.00;15.00;;;6.40;21.20;;;;;;4996668;28;20872;-59
2023/12/07 10:16:14;;;;;;;14.73;13.83;;;6.70;20.90;;;;;;4996543;28;20474;-60
2023/12/07 10:18:40;;;;;;;15.43;14.43;;;6.80;20.80;;;;;;4996497;28;20633;-59
2023/12/07 10:21:08;;;;;;;14.90;13.90;;;7.00;20.30;;;;;;4996298;28;20439;-59
2023/12/07 10:23:34;;;;;;;15.67;14.70;;;7.20;19.90;;;;;;4996791;28;20428;-61
2023/12/07 10:26:02;;;;;;;15.30;14.40;;;7.40;21.10;;;;;;4992624;28;20460;-59
2023/12/07 10:28:28;;;;;;;15.17;14.27;;;7.40;19.50;;;;;;4991764;28;20174;-59
2023/12/07 10:30:54;;;;;;;14.90;14.03;;;7.30;18.40;;;;;;4992380;28;20464;-46
2023/12/07 10:33:20;;;;;;;15.63;14.60;;;7.20;18.30;;;;;;4993447;28;20967;-51
2023/12/07 10:35:48;;;;;;;15.43;14.37;;;7.20;18.70;;;;;;4977016;28;20189;-47
2023/12/07 10:38:14;;;;;;;15.80;14.53;;;7.00;18.40;;;;;;4993204;28;20456;-49
2023/12/07 10:40:41;;;;;;;16.07;14.97;;;7.00;19.00;;;;;;4993309;28;20461;-46
2023/12/07 10:43:09;;;;;;;16.80;15.77;;;7.10;18.80;;;;;;4993270;28;20272;-49
2023/12/07 10:45:36;;;;;;;17.40;16.30;;;7.30;18.60;;;;;;4977867;28;20504;-51
2023/12/07 10:48:05;;;;;;;14.90;14.00;;;7.40;18.40;;;;;;4993170;28;20929;-50
2023/12/07 10:50:34;;;;;;;15.53;14.63;;;7.50;17.90;;;;;;4992944;28;20433;-49
2023/12/07 10:53:10;;;;;;;13.87;13.07;;;7.70;17.40;;;;;;4993031;28;20420;-45
2023/12/07 10:55:47;;;;;;;16.17;14.97;;;7.50;16.10;;;;;;4992780;28;20805;-48
2023/12/07 10:58:14;;;;;;;13.90;13.10;;;7.30;17.10;;;;;;4993068;28;20416;-47
2023/12/07 11:00:46;;;;;;;11.73;11.13;;;7.30;16.50;;;;;;4992813;28;20428;-48
2023/12/07 11:03:17;;;;;;;12.00;11.30;;;7.10;15.30;;;;;;4992878;28;20436;-59
2023/12/07 11:05:44;;;;;;;12.60;11.60;;;6.90;15.30;;;;;;4992012;28;20422;-58
2023/12/07 11:08:36;;;;;;;12.50;11.53;;;6.90;16.20;;;;;;4992699;28;20941;-59
2023/12/07 11:11:45;;;;;;;12.63;11.93;;;7.00;15.10;;;;;;4992833;28;20519;-60
2023/12/07 11:14:12;;;;;;;11.00;10.50;;;7.10;15.50;;;;;;4952940;29;20434;-59
2023/12/07 11:16:41;;;;;;;11.10;10.33;;;7.30;14.20;;;;;;4952380;28;20493;-57
2023/12/07 11:19:29;;;;;;;10.80;10.20;;;7.30;13.70;;;;;;4973009;28;20425;-59
2023/12/07 11:21:58;;;;;;;11.47;10.77;;;7.20;13.50;;;;;;4976354;28;20425;-59
2023/12/07 11:24:24;;;;;;;11.47;10.70;;;7.20;13.90;;;;;;4992525;28;20413;-59
2023/12/07 11:26:52;;;;;;;10.67;10.00;;;7.00;13.70;;;;;;4992437;28;20769;-57
2023/12/07 11:29:25;;;;;;;10.13;9.63;;;7.00;13.80;;;;;;4992461;28;20417;-57
2023/12/07 11:31:55;;;;;;;10.17;9.50;;;7.00;13.70;;;;;;4992150;28;20464;-59
2023/12/07 11:34:38;;;;;;;10.93;10.20;;;7.00;13.70;;;;;;4992495;28;20428;-61
2023/12/07 11:37:04;;;;;;;9.60;9.00;;;7.00;13.70;;;;;;4992054;28;20432;-59
2023/12/07 11:39:41;;;;;;;9.10;8.60;;;7.10;12.70;;;;;;4992139;28;20421;-58
2023/12/07 11:42:08;;;;;;;9.67;9.17;;;7.10;13.10;;;;;;4992236;28;20917;-60
2023/12/07 11:44:34;;;;;;;9.83;9.33;;;7.20;13.90;;;;;;4976071;28;20429;-58
2023/12/07 11:47:01;;;;;;;10.73;10.17;;;7.40;13.70;;;;;;4991937;28;20437;-59
2023/12/07 11:49:28;;;;;;;9.60;9.00;;;7.60;14.00;;;;;;4993365;28;20432;-60
2023/12/07 11:51:53;;;;;;;9.60;9.00;;;7.60;13.40;;;;;;4992052;28;20475;-50
2023/12/07 11:54:19;;;;;;;9.43;8.90;;;7.80;12.80;;;;;;4992072;28;20429;-53
2023/12/07 11:56:45;;;;;;;9.07;8.57;;;7.70;11.80;;;;;;4993072;28;20188;-50
2023/12/07 11:59:10;;;;;;;9.53;8.90;;;7.80;12.00;;;;;;4991790;28;20202;-49
2023/12/07 12:01:36;;;;;;;9.07;8.67;;;7.90;12.30;;;;;;4991997;28;20184;-50
2023/12/07 12:04:04;;;;;;;8.13;7.63;;;8.00;11.70;;;;;;4991901;28;20186;-51
2023/12/07 12:06:30;;;;;;;8.43;8.00;;;8.10;11.50;;;;;;4991813;28;20647;-48
2023/12/07 12:08:56;;;;;;;8.37;7.93;;;8.10;10.00;;;;;;4991762;28;20433;-48
2023/12/07 12:11:21;;;;;;;11.03;10.40;;;8.00;10.20;;;;;;5012728;28;20838;-48
2023/12/07 12:13:47;;;;;;;9.53;9.03;;;7.80;9.80;;;;;;5011048;28;20417;-47
2023/12/07 12:16:14;;;;;;;9.60;9.00;;;7.70;9.90;;;;;;5002391;28;20653;-48
2023/12/07 12:18:40;;;;;;;9.03;8.43;;;7.60;9.80;;;;;;4993822;28;20185;-45
2023/12/07 12:21:08;;;;;;;8.80;8.20;;;7.40;10.30;;;;;;4994465;28;20459;-51
2023/12/07 12:23:34;;;;;;;7.90;7.50;;;7.40;10.90;;;;;;4994853;28;20181;-48
2023/12/07 12:26:01;;;;;;;8.37;7.97;;;7.30;10.70;;;;;;4994463;28;20554;-49
2023/12/07 12:28:27;;;;;;;8.60;8.13;;;7.20;11.30;;;;;;4994686;28;20439;-51
2023/12/07 12:30:53;;;;;;;12.50;11.50;;;7.10;11.50;;;;;;4993932;28;20455;-60
2023/12/07 12:33:19;;;;;;;9.70;9.10;;;7.10;11.90;;;;;;4991286;28;20185;-59
2023/12/07 12:35:45;;;;;;;10.17;9.37;;;7.20;11.90;;;;;;4975129;28;20409;-58
2023/12/07 12:38:11;;;;;;;10.40;9.80;;;7.20;12.20;;;;;;4975307;28;20263;-60